Time;durP1;ratioP1;P1;durP2;ratioP2;P2;SDS_P1;SDS_P2;PMS_P1;PMS_P2;Temp;Humidity;BMP_temperature;BMP_pressure;BME280_temperature;BME280_humidity;BME280_pressure;Samples;Min_cycle;Max_cycle;Signal;HPM_P1;HPM_P2
2022/04/07 00:01:44;;;;;;;16.45;3.97;;;1.60;99.90;;;;;;5077915;28;20196;-88
2022/04/07 00:04:13;;;;;;;10.60;4.07;;;1.70;99.90;;;;;;5095008;28;20584;-89
2022/04/07 00:06:40;;;;;;;6.60;3.80;;;1.70;99.90;;;;;;5094837;28;20199;-89
2022/04/07 00:09:08;;;;;;;14.40;3.42;;;1.70;99.90;;;;;;5061420;28;20188;-89
2022/04/07 00:11:36;;;;;;;55.35;6.10;;;1.70;99.90;;;;;;5094780;28;20204;-89
2022/04/07 00:14:04;;;;;;;11.18;2.92;;;1.70;99.90;;;;;;5062797;28;20180;-89
2022/04/07 00:16:31;;;;;;;4.82;3.00;;;1.80;99.90;;;;;;5057766;28;20531;-89
2022/04/07 00:18:59;;;;;;;11.82;3.28;;;1.80;99.90;;;;;;5041283;28;20192;-89
2022/04/07 00:21:35;;;;;;;4.72;2.78;;;1.80;99.90;;;;;;5057813;28;20283;-89
2022/04/07 00:24:04;;;;;;;7.70;2.70;;;1.80;99.90;;;;;;5073992;28;20189;-88
2022/04/07 00:26:33;;;;;;;11.27;2.72;;;1.80;99.90;;;;;;5057590;28;20682;-88
2022/04/07 00:29:01;;;;;;;7.93;3.78;;;1.80;99.90;;;;;;5056368;28;20394;-88
2022/04/07 00:31:38;;;;;;;5.95;3.08;;;1.90;99.90;;;;;;5056280;28;20398;-88
2022/04/07 00:34:08;;;;;;;6.45;2.90;;;1.90;99.90;;;;;;5056678;28;20382;-88
2022/04/07 00:36:36;;;;;;;5.80;2.72;;;1.90;99.90;;;;;;5056204;28;20481;-88
2022/04/07 00:39:04;;;;;;;8.55;2.90;;;1.90;99.90;;;;;;5056075;28;20406;-88
2022/04/07 00:41:32;;;;;;;8.98;2.83;;;1.90;99.90;;;;;;5072646;28;20508;-88
2022/04/07 00:43:59;;;;;;;8.10;2.67;;;2.00;99.90;;;;;;5039568;28;20754;-89
2022/04/07 00:46:27;;;;;;;4.60;2.72;;;2.00;99.90;;;;;;5056006;28;20406;-89
2022/04/07 00:48:55;;;;;;;11.75;3.08;;;2.00;99.90;;;;;;5055968;28;20398;-89
2022/04/07 00:51:22;;;;;;;6.68;2.75;;;2.10;99.90;;;;;;5055704;28;20394;-89
2022/04/07 00:53:50;;;;;;;9.70;2.78;;;2.10;99.90;;;;;;5072592;28;20801;-88
2022/04/07 00:56:18;;;;;;;6.72;3.67;;;2.10;99.90;;;;;;5055263;28;20386;-89
2022/04/07 00:58:47;;;;;;;5.13;3.53;;;2.20;99.90;;;;;;5055915;28;20783;-88
2022/04/07 01:01:17;;;;;;;6.88;5.22;;;2.30;99.90;;;;;;5055884;28;20394;-88
2022/04/07 01:03:46;;;;;;;7.95;5.90;;;2.40;99.90;;;;;;5062021;28;20406;-89
2022/04/07 01:06:13;;;;;;;7.20;5.20;;;2.40;99.90;;;;;;5032460;28;20910;-88
2022/04/07 01:08:42;;;;;;;9.20;5.95;;;2.50;99.90;;;;;;5032159;28;20488;-88
2022/04/07 01:11:09;;;;;;;7.30;5.03;;;2.50;99.90;;;;;;5032209;28;20413;-89
2022/04/07 01:13:51;;;;;;;7.60;5.28;;;2.60;99.90;;;;;;5032242;28;20433;-89
2022/04/07 01:16:27;;;;;;;7.50;5.43;;;2.60;99.90;;;;;;5032519;28;20484;-89
2022/04/07 01:18:56;;;;;;;8.98;5.90;;;2.70;99.90;;;;;;5015716;28;20402;-89
2022/04/07 01:21:25;;;;;;;8.50;5.50;;;2.80;99.90;;;;;;5033345;28;20390;-89
2022/04/07 01:24:04;;;;;;;8.27;5.55;;;2.80;99.90;;;;;;5032042;28;20468;-90
2022/04/07 01:26:33;;;;;;;9.60;6.07;;;3.00;99.90;;;;;;5032119;28;20733;-89
2022/04/07 01:29:01;;;;;;;9.17;5.97;;;3.10;99.90;;;;;;5015765;28;20901;-88
2022/04/07 01:31:29;;;;;;;7.90;5.18;;;3.10;99.90;;;;;;5031802;28;20413;-88
2022/04/07 01:33:58;;;;;;;7.63;4.30;;;3.10;99.90;;;;;;5031939;28;20934;-89
2022/04/07 01:36:31;;;;;;;6.22;4.22;;;3.30;99.90;;;;;;5032890;28;20796;-89
2022/04/07 01:39:01;;;;;;;5.55;3.38;;;3.30;99.90;;;;;;5031886;28;20466;-89
2022/04/07 01:41:28;;;;;;;5.97;3.67;;;3.40;99.90;;;;;;5015355;28;20480;-89
2022/04/07 01:43:59;;;;;;;5.80;3.43;;;3.40;99.90;;;;;;5031794;28;20443;-90
2022/04/07 01:46:27;;;;;;;5.63;3.33;;;3.40;99.90;;;;;;5031840;28;20394;-88
2022/04/07 01:48:56;;;;;;;6.07;3.80;;;3.40;99.90;;;;;;5031590;28;20440;-89
2022/04/07 01:51:26;;;;;;;6.50;3.92;;;3.40;99.90;;;;;;5031544;28;20872;-88
2022/04/07 01:53:56;;;;;;;6.55;3.63;;;3.40;99.90;;;;;;5031543;28;20389;-89
2022/04/07 01:56:24;;;;;;;6.40;4.05;;;3.40;99.90;;;;;;5015256;28;20398;-89
2022/04/07 01:58:53;;;;;;;6.97;4.25;;;3.40;99.90;;;;;;5015054;28;20451;-89
2022/04/07 02:01:21;;;;;;;7.88;4.90;;;3.40;99.90;;;;;;5031257;28;20402;-89
2022/04/07 02:03:48;;;;;;;8.27;5.60;;;3.40;99.90;;;;;;5034748;28;20481;-89
2022/04/07 02:06:18;;;;;;;9.25;5.65;;;3.40;99.90;;;;;;5031064;28;20831;-88
2022/04/07 02:08:46;;;;;;;9.60;5.80;;;3.40;99.90;;;;;;5030545;28;20392;-89
2022/04/07 02:11:14;;;;;;;9.93;6.03;;;3.50;99.90;;;;;;5031119;28;20390;-90
2022/04/07 02:13:42;;;;;;;10.05;6.32;;;3.40;99.90;;;;;;5030854;28;20398;-88
2022/04/07 02:16:11;;;;;;;11.67;6.90;;;3.40;99.90;;;;;;5031363;28;20381;-89
2022/04/07 02:18:39;;;;;;;12.27;7.35;;;3.40;99.90;;;;;;5047670;28;20389;-89
2022/04/07 02:21:07;;;;;;;13.82;7.93;;;3.40;99.90;;;;;;5014851;28;20484;-89
2022/04/07 02:23:42;;;;;;;12.57;6.47;;;3.50;99.90;;;;;;5030979;28;20752;-89
2022/04/07 02:26:15;;;;;;;56.78;7.53;;;3.40;99.90;;;;;;5047453;28;20389;-90
2022/04/07 02:28:44;;;;;;;47.28;7.15;;;3.50;99.90;;;;;;5031158;28;20447;-89
2022/04/07 02:31:12;;;;;;;10.37;5.77;;;3.50;99.90;;;;;;5047343;28;20392;-90
2022/04/07 02:33:40;;;;;;;53.10;7.35;;;3.50;99.90;;;;;;5030953;28;20417;-88
2022/04/07 02:36:09;;;;;;;36.70;7.07;;;3.50;99.90;;;;;;5030879;28;20755;-89
2022/04/07 02:38:37;;;;;;;16.38;6.75;;;3.50;99.90;;;;;;5031263;28;20393;-89
2022/04/07 02:41:04;;;;;;;36.07;6.70;;;3.60;99.90;;;;;;5047279;28;20400;-89
2022/04/07 02:43:32;;;;;;;44.95;7.13;;;3.60;99.90;;;;;;5047213;28;20447;-89
2022/04/07 02:45:59;;;;;;;28.97;7.77;;;3.60;99.90;;;;;;5030764;28;20389;-89
2022/04/07 02:48:27;;;;;;;88.55;8.52;;;3.60;99.90;;;;;;5030749;28;20690;-89
2022/04/07 02:50:55;;;;;;;25.80;9.20;;;3.60;99.90;;;;;;5030645;28;20386;-89
2022/04/07 02:53:24;;;;;;;35.35;8.15;;;3.70;99.90;;;;;;5030535;28;20406;-88
2022/04/07 02:55:52;;;;;;;31.00;7.37;;;3.70;99.90;;;;;;5014195;28;20409;-90
2022/04/07 02:58:20;;;;;;;36.65;7.95;;;3.60;99.90;;;;;;5031944;28;20888;-90
2022/04/07 03:00:48;;;;;;;69.40;8.73;;;3.70;99.90;;;;;;5046248;28;20383;-90
2022/04/07 03:03:15;;;;;;;59.72;9.48;;;3.80;99.90;;;;;;5055578;28;20928;-88
2022/04/07 03:05:43;;;;;;;33.58;8.10;;;3.70;99.90;;;;;;5073921;28;20423;-89
2022/04/07 03:08:12;;;;;;;68.70;9.38;;;3.70;99.90;;;;;;5073729;28;20393;-88
2022/04/07 03:10:40;;;;;;;52.63;9.57;;;3.70;99.90;;;;;;5073835;28;20397;-89
2022/04/07 03:13:07;;;;;;;31.27;9.60;;;3.80;99.90;;;;;;5073854;28;20433;-90
2022/04/07 03:15:35;;;;;;;54.70;10.32;;;3.90;99.90;;;;;;5057071;28;20384;-89
2022/04/07 03:18:03;;;;;;;24.42;9.52;;;3.90;99.90;;;;;;5057397;28;20389;-88
2022/04/07 03:20:31;;;;;;;26.02;10.82;;;3.90;99.90;;;;;;5077499;28;20399;-89
2022/04/07 03:22:58;;;;;;;16.92;10.40;;;3.90;99.90;;;;;;5077802;28;20404;-90
2022/04/07 03:25:26;;;;;;;17.63;10.43;;;4.00;99.90;;;;;;5077844;28;20477;-89
2022/04/07 03:27:53;;;;;;;15.02;9.15;;;4.00;99.90;;;;;;5060994;28;20412;-91
2022/04/07 03:30:21;;;;;;;15.18;9.63;;;4.10;99.90;;;;;;5060436;28;20392;-89
2022/04/07 03:32:49;;;;;;;15.30;9.67;;;4.10;99.90;;;;;;5077487;28;20403;-90
2022/04/07 03:35:16;;;;;;;16.40;9.80;;;4.10;99.90;;;;;;5076460;28;20446;-89
2022/04/07 03:37:44;;;;;;;17.43;11.20;;;4.20;99.90;;;;;;5110875;28;20901;-90
2022/04/07 03:40:12;;;;;;;16.17;10.07;;;4.20;99.90;;;;;;5093986;28;20443;-89
2022/04/07 03:42:43;;;;;;;17.23;10.65;;;4.20;99.90;;;;;;5099740;28;20400;-90
2022/04/07 03:45:11;;;;;;;19.63;11.82;;;4.20;99.90;;;;;;5110880;28;20423;-88
2022/04/07 03:47:39;;;;;;;17.67;11.10;;;4.20;99.90;;;;;;5110870;28;20388;-89
2022/04/07 03:50:07;;;;;;;16.48;10.48;;;4.20;99.90;;;;;;5094032;28;20407;-90
2022/04/07 03:52:36;;;;;;;16.13;10.52;;;4.30;99.90;;;;;;5110657;28;20404;-89
2022/04/07 03:55:05;;;;;;;17.95;10.90;;;4.20;99.90;;;;;;5110728;28;20392;-89
2022/04/07 03:57:33;;;;;;;16.05;10.57;;;4.20;99.90;;;;;;5110648;28;20463;-88
2022/04/07 04:00:01;;;;;;;13.90;8.90;;;4.30;99.90;;;;;;5076931;28;20384;-89
2022/04/07 04:02:39;;;;;;;15.43;10.13;;;4.40;99.90;;;;;;5108337;28;20406;-88
2022/04/07 04:05:07;;;;;;;14.77;8.70;;;4.40;99.90;;;;;;5050269;28;20414;-89
2022/04/07 04:07:35;;;;;;;11.55;7.07;;;4.50;99.90;;;;;;5029235;28;20459;-89
2022/04/07 04:10:03;;;;;;;11.88;7.43;;;4.50;99.90;;;;;;5049720;28;20856;-89
2022/04/07 04:12:30;;;;;;;11.65;7.15;;;4.50;99.90;;;;;;5033372;28;20402;-90
2022/04/07 04:14:58;;;;;;;10.97;6.87;;;4.60;99.90;;;;;;5051317;28;20472;-89
2022/04/07 04:17:27;;;;;;;10.07;6.03;;;4.60;99.90;;;;;;5053490;28;20466;-89
2022/04/07 04:19:55;;;;;;;12.57;7.07;;;4.70;99.90;;;;;;5053478;28;20437;-88
2022/04/07 04:22:23;;;;;;;12.38;7.10;;;4.70;99.90;;;;;;5069915;28;20395;-89
2022/04/07 04:24:51;;;;;;;11.48;7.00;;;4.80;99.90;;;;;;5053060;28;20399;-89
2022/04/07 04:27:19;;;;;;;10.35;6.25;;;4.70;99.90;;;;;;5053024;28;20400;-90
2022/04/07 04:29:46;;;;;;;10.00;6.40;;;4.70;99.90;;;;;;5048203;28;20405;-89
2022/04/07 04:32:15;;;;;;;10.73;6.45;;;4.80;99.90;;;;;;5032804;28;20412;-90
2022/04/07 04:34:42;;;;;;;9.50;6.32;;;4.70;99.90;;;;;;5033039;28;20393;-88
2022/04/07 04:37:10;;;;;;;11.73;6.93;;;4.70;99.90;;;;;;5032880;28;20485;-88
2022/04/07 04:39:38;;;;;;;11.38;6.68;;;4.80;99.90;;;;;;5032769;28;20448;-90
2022/04/07 04:42:06;;;;;;;11.93;6.93;;;4.80;99.90;;;;;;5033998;28;20497;-89
2022/04/07 04:44:34;;;;;;;12.60;8.32;;;4.80;99.90;;;;;;5032756;28;20397;-89
2022/04/07 04:47:02;;;;;;;13.40;7.72;;;4.80;99.90;;;;;;5032848;28;20571;-89
2022/04/07 04:49:30;;;;;;;13.85;8.60;;;4.80;99.90;;;;;;5033495;28;20441;-88
2022/04/07 04:51:57;;;;;;;15.02;8.95;;;4.80;99.90;;;;;;5054594;28;20431;-89
2022/04/07 04:54:25;;;;;;;16.45;9.70;;;4.90;99.90;;;;;;5052385;28;20927;-87
2022/04/07 04:56:52;;;;;;;18.02;11.20;;;4.90;99.90;;;;;;5069282;28;20383;-89
2022/04/07 04:59:20;;;;;;;24.27;13.02;;;4.90;99.90;;;;;;5053224;28;20388;-89
2022/04/07 05:01:48;;;;;;;20.50;13.77;;;4.90;99.90;;;;;;5069073;28;20471;-89
2022/04/07 05:04:16;;;;;;;20.63;13.43;;;4.90;99.90;;;;;;5035842;28;20435;-90
2022/04/07 05:06:43;;;;;;;17.43;11.13;;;4.90;99.90;;;;;;5045429;28;20476;-88
2022/04/07 05:09:11;;;;;;;16.55;10.65;;;4.90;99.90;;;;;;5054696;28;20476;-89
2022/04/07 05:11:39;;;;;;;19.98;11.55;;;4.90;99.90;;;;;;5048682;28;20385;-87
2022/04/07 05:14:06;;;;;;;20.08;12.27;;;5.00;99.90;;;;;;5054572;28;20454;-86
2022/04/07 05:16:34;;;;;;;21.58;12.32;;;5.00;99.90;;;;;;5035274;28;20395;-88
2022/04/07 05:19:01;;;;;;;18.70;11.50;;;5.10;99.90;;;;;;5064670;28;20389;-87
2022/04/07 05:21:29;;;;;;;16.95;10.70;;;5.00;99.90;;;;;;5031622;28;20386;-87
2022/04/07 05:23:57;;;;;;;21.10;11.90;;;5.10;99.90;;;;;;5064825;28;20397;-86
2022/04/07 05:26:24;;;;;;;16.85;10.52;;;5.10;99.90;;;;;;5031967;28;20397;-87
2022/04/07 05:28:52;;;;;;;16.10;10.30;;;5.10;99.90;;;;;;5033053;28;20396;-87
2022/04/07 05:31:20;;;;;;;17.58;10.93;;;5.10;99.90;;;;;;5015315;28;20385;-87
2022/04/07 05:33:47;;;;;;;18.25;11.80;;;5.20;99.90;;;;;;5015132;28;20852;-87
2022/04/07 05:36:16;;;;;;;16.23;10.90;;;5.20;99.90;;;;;;5015317;28;20450;-86
2022/04/07 05:38:44;;;;;;;15.13;9.95;;;5.20;99.90;;;;;;5031370;28;20452;-86
2022/04/07 05:41:11;;;;;;;14.20;9.40;;;5.20;99.90;;;;;;5031427;28;20385;-87
2022/04/07 05:43:39;;;;;;;14.90;9.10;;;5.20;99.90;;;;;;5032646;28;20390;-87
2022/04/07 05:46:07;;;;;;;17.30;10.13;;;5.20;99.90;;;;;;5032644;28;20393;-87
2022/04/07 05:48:34;;;;;;;14.05;8.98;;;5.30;99.90;;;;;;5014964;28;20883;-86
2022/04/07 05:51:02;;;;;;;17.40;10.77;;;5.20;99.90;;;;;;5047859;28;20389;-87
2022/04/07 05:53:30;;;;;;;18.08;10.65;;;5.30;99.90;;;;;;5015171;28;20499;-87
2022/04/07 05:55:59;;;;;;;19.35;11.60;;;5.30;99.90;;;;;;5031390;28;20443;-88
2022/04/07 05:58:27;;;;;;;18.03;12.23;;;5.30;99.90;;;;;;5031282;28;20401;-88
2022/04/07 06:00:54;;;;;;;13.90;9.20;;;5.30;99.90;;;;;;5015227;28;20502;-88
2022/04/07 06:03:22;;;;;;;14.65;9.55;;;5.30;99.90;;;;;;5038931;28;20398;-88
2022/04/07 06:05:52;;;;;;;15.65;9.40;;;5.40;99.90;;;;;;5063344;28;20396;-88
2022/04/07 06:08:21;;;;;;;14.68;9.52;;;5.40;99.90;;;;;;5052108;28;20400;-88
2022/04/07 06:10:49;;;;;;;16.40;10.48;;;5.40;99.90;;;;;;5074199;28;20724;-88
2022/04/07 06:13:17;;;;;;;17.13;10.98;;;5.50;99.90;;;;;;5067139;28;20476;-88
2022/04/07 06:15:44;;;;;;;17.27;10.95;;;5.50;99.90;;;;;;5090318;28;20388;-87
2022/04/07 06:18:13;;;;;;;17.92;12.00;;;5.50;99.90;;;;;;5064691;28;20433;-87
2022/04/07 06:20:41;;;;;;;18.20;11.68;;;5.60;99.90;;;;;;5041311;28;20840;-86
2022/04/07 06:23:09;;;;;;;19.23;11.70;;;5.60;99.90;;;;;;5072117;28;20388;-87
2022/04/07 06:25:37;;;;;;;15.63;9.90;;;5.60;99.90;;;;;;5073674;28;20785;-86
2022/04/07 06:28:06;;;;;;;13.27;8.85;;;5.70;99.90;;;;;;5073331;28;20393;-86
2022/04/07 06:30:33;;;;;;;13.38;9.00;;;5.70;99.90;;;;;;5072716;28;20392;-87
2022/04/07 06:33:01;;;;;;;13.35;8.48;;;5.70;99.90;;;;;;5090669;28;20396;-86
2022/04/07 06:35:28;;;;;;;13.27;8.75;;;5.70;99.90;;;;;;5090634;28;20388;-87
2022/04/07 06:37:57;;;;;;;14.27;8.57;;;5.70;99.90;;;;;;5088781;28;20442;-85
2022/04/07 06:40:29;;;;;;;15.80;9.93;;;5.70;99.90;;;;;;5073050;28;20793;-86
2022/04/07 06:42:59;;;;;;;14.77;9.43;;;5.80;99.90;;;;;;5091484;28;20393;-87
2022/04/07 06:45:27;;;;;;;16.88;10.35;;;5.70;99.90;;;;;;5073257;28;20389;-86
2022/04/07 06:47:56;;;;;;;15.18;9.68;;;5.70;99.90;;;;;;5078604;28;20396;-85
2022/04/07 06:50:25;;;;;;;15.50;9.87;;;5.70;99.90;;;;;;5090137;28;20510;-85
2022/04/07 06:52:54;;;;;;;15.65;10.45;;;5.70;99.90;;;;;;5073245;28;20427;-86
2022/04/07 06:55:23;;;;;;;16.37;10.50;;;5.70;99.90;;;;;;5094048;28;20396;-87
2022/04/07 06:57:57;;;;;;;17.60;11.23;;;5.80;99.90;;;;;;5094872;28;20723;-85
2022/04/07 07:00:27;;;;;;;18.02;12.05;;;5.80;99.90;;;;;;5077916;28;20392;-87
2022/04/07 07:02:57;;;;;;;20.23;13.00;;;5.80;99.90;;;;;;5095761;28;20476;-86
2022/04/07 07:05:30;;;;;;;19.85;13.18;;;5.80;99.90;;;;;;5095901;28;20389;-87
2022/04/07 07:08:14;;;;;;;21.40;14.48;;;5.90;99.90;;;;;;5094628;28;20384;-87
2022/04/07 07:10:45;;;;;;;24.52;15.55;;;6.00;99.90;;;;;;5095629;28;20529;-88
2022/04/07 07:13:20;;;;;;;23.73;15.50;;;6.00;99.90;;;;;;5077463;28;20411;-87
2022/04/07 07:15:55;;;;;;;24.50;16.13;;;6.00;99.90;;;;;;5078663;28;20467;-88
2022/04/07 07:18:23;;;;;;;24.45;15.23;;;6.00;99.90;;;;;;5094590;28;20392;-88
2022/04/07 07:20:52;;;;;;;26.33;17.98;;;6.00;99.90;;;;;;5094562;28;20380;-89
2022/04/07 07:23:21;;;;;;;25.42;16.55;;;6.00;99.90;;;;;;5095563;28;20388;-89
2022/04/07 07:25:48;;;;;;;24.23;16.05;;;6.00;99.90;;;;;;5094753;28;20384;-86
2022/04/07 07:28:17;;;;;;;25.23;16.02;;;6.00;99.90;;;;;;5095221;28;20475;-86
2022/04/07 07:30:46;;;;;;;26.80;17.20;;;6.10;99.90;;;;;;5093771;28;20421;-86
2022/04/07 07:33:19;;;;;;;25.88;17.15;;;6.10;99.90;;;;;;5094056;28;20400;-86
2022/04/07 07:35:47;;;;;;;25.13;15.63;;;6.10;99.90;;;;;;5094082;28;20455;-87
2022/04/07 07:38:16;;;;;;;26.33;16.92;;;6.20;99.90;;;;;;5094852;28;20457;-86
2022/04/07 07:40:45;;;;;;;25.92;16.63;;;6.20;99.90;;;;;;5094765;28;20387;-86
2022/04/07 07:43:13;;;;;;;26.85;17.27;;;6.20;99.90;;;;;;5093526;28;20896;-86
2022/04/07 07:45:41;;;;;;;29.07;18.47;;;6.20;99.90;;;;;;5093676;28;20393;-86
2022/04/07 07:48:28;;;;;;;26.52;17.55;;;6.20;99.90;;;;;;5057947;28;20441;-87
2022/04/07 07:50:57;;;;;;;28.08;17.20;;;6.10;99.90;;;;;;5093022;28;20388;-86
2022/04/07 07:53:25;;;;;;;28.13;17.33;;;6.10;99.90;;;;;;5075805;28;20804;-86
2022/04/07 07:55:55;;;;;;;27.80;18.05;;;6.20;99.90;;;;;;5085727;28;20385;-87
2022/04/07 07:58:24;;;;;;;27.77;18.53;;;6.20;99.90;;;;;;5073072;28;20382;-87
2022/04/07 08:00:53;;;;;;;26.13;16.90;;;6.10;99.90;;;;;;5093341;28;20384;-86
2022/04/07 08:03:20;;;;;;;28.30;17.67;;;6.20;99.90;;;;;;5093120;28;20400;-87
2022/04/07 08:05:48;;;;;;;29.13;18.92;;;6.20;99.90;;;;;;5076224;28;20878;-87
2022/04/07 08:08:16;;;;;;;30.10;19.00;;;6.20;99.90;;;;;;5089982;28;20427;-86
2022/04/07 08:10:44;;;;;;;29.55;18.35;;;6.20;99.90;;;;;;5093157;28;20384;-87
2022/04/07 08:13:11;;;;;;;29.25;19.33;;;6.20;99.90;;;;;;5093228;28;20830;-87
2022/04/07 08:15:39;;;;;;;32.33;20.90;;;6.20;99.90;;;;;;5094433;28;20380;-86
2022/04/07 08:18:08;;;;;;;30.83;18.92;;;6.30;99.90;;;;;;5093066;28;20437;-87
2022/04/07 08:20:36;;;;;;;30.23;20.93;;;6.30;99.90;;;;;;5076034;28;20391;-88
2022/04/07 08:23:04;;;;;;;30.98;20.88;;;6.30;99.90;;;;;;5076189;28;20471;-87
2022/04/07 08:25:32;;;;;;;33.65;21.35;;;6.30;99.90;;;;;;5094370;28;20424;-87
2022/04/07 08:27:59;;;;;;;30.67;21.42;;;6.30;99.90;;;;;;5076023;28;20396;-88
2022/04/07 08:30:27;;;;;;;32.83;21.85;;;6.30;99.90;;;;;;5075827;28;20393;-86
2022/04/07 08:32:55;;;;;;;32.25;21.00;;;6.30;99.90;;;;;;5059426;28;20428;-88
2022/04/07 08:35:22;;;;;;;34.50;22.83;;;6.30;99.90;;;;;;5059406;28;20389;-87
2022/04/07 08:37:50;;;;;;;32.97;22.27;;;6.30;99.90;;;;;;5075734;28;20471;-87
2022/04/07 08:40:21;;;;;;;35.97;23.25;;;6.40;99.90;;;;;;5076064;28;20386;-88
2022/04/07 08:42:49;;;;;;;33.40;22.33;;;6.40;99.90;;;;;;5075889;28;20388;-88
2022/04/07 08:45:17;;;;;;;32.13;22.10;;;6.40;99.90;;;;;;5075933;28;20380;-87
2022/04/07 08:47:47;;;;;;;32.88;21.58;;;6.40;99.90;;;;;;5075719;28;20388;-87
2022/04/07 08:50:21;;;;;;;34.15;23.15;;;6.40;99.90;;;;;;5092658;28;20450;-87
2022/04/07 08:52:49;;;;;;;32.35;22.83;;;6.40;99.90;;;;;;5075943;28;20392;-88
2022/04/07 08:55:17;;;;;;;33.78;24.05;;;6.40;99.90;;;;;;5093802;28;20418;-88
2022/04/07 08:57:45;;;;;;;35.03;24.07;;;6.40;99.90;;;;;;5093659;28;20413;-87
2022/04/07 09:00:14;;;;;;;32.47;22.55;;;6.40;99.90;;;;;;5093077;28;20461;-87
2022/04/07 09:02:41;;;;;;;33.88;23.83;;;6.40;99.90;;;;;;5074528;28;20898;-88
2022/04/07 09:05:12;;;;;;;30.60;22.25;;;6.40;99.90;;;;;;5050392;28;20471;-88
2022/04/07 09:07:40;;;;;;;32.25;21.02;;;6.40;99.90;;;;;;5036216;28;20897;-88
2022/04/07 09:10:08;;;;;;;32.42;22.27;;;6.40;99.90;;;;;;5068146;28;20422;-88
2022/04/07 09:12:38;;;;;;;31.17;20.35;;;6.50;99.90;;;;;;5035321;28;20396;-89
2022/04/07 09:15:07;;;;;;;32.00;21.02;;;6.50;99.90;;;;;;5050912;28;20508;-88
2022/04/07 09:17:49;;;;;;;32.35;21.45;;;6.50;99.90;;;;;;5034144;28;20765;-88
2022/04/07 09:20:16;;;;;;;28.50;20.33;;;6.50;99.90;;;;;;5050246;28;20411;-88
2022/04/07 09:22:44;;;;;;;31.88;20.45;;;6.50;99.90;;;;;;5051582;28;20380;-87
2022/04/07 09:25:13;;;;;;;31.10;21.37;;;6.60;99.90;;;;;;5072568;28;20406;-87
2022/04/07 09:27:41;;;;;;;30.80;20.60;;;6.50;99.90;;;;;;5063652;28;20392;-87
2022/04/07 09:30:10;;;;;;;30.40;19.02;;;6.50;99.90;;;;;;5066009;28;20497;-88
2022/04/07 09:32:44;;;;;;;28.95;20.33;;;6.50;99.90;;;;;;5088451;28;20790;-88
2022/04/07 09:35:13;;;;;;;28.77;18.92;;;6.50;99.90;;;;;;5088143;28;20904;-88
2022/04/07 09:37:43;;;;;;;30.38;20.60;;;6.50;99.90;;;;;;5088433;28;20389;-90
2022/04/07 09:40:18;;;;;;;30.33;20.50;;;6.50;99.90;;;;;;5088090;28;20473;-88
2022/04/07 09:42:55;;;;;;;27.77;18.98;;;6.60;99.90;;;;;;5071505;28;20768;-88
2022/04/07 09:45:23;;;;;;;27.08;17.48;;;6.50;99.90;;;;;;5071342;28;20394;-88
2022/04/07 09:47:51;;;;;;;27.77;19.05;;;6.50;99.90;;;;;;5071747;28;20396;-88
2022/04/07 09:50:32;;;;;;;26.40;18.10;;;6.60;99.90;;;;;;5051453;28;20437;-87
2022/04/07 09:53:05;;;;;;;28.75;19.45;;;6.60;99.90;;;;;;5050759;28;20416;-86
2022/04/07 09:55:37;;;;;;;28.13;18.00;;;6.60;99.90;;;;;;5052464;28;20383;-87
2022/04/07 09:58:07;;;;;;;26.20;18.02;;;6.60;99.90;;;;;;5051337;28;20470;-87
2022/04/07 10:00:35;;;;;;;26.00;18.33;;;6.60;99.90;;;;;;5051262;28;20495;-90
2022/04/07 10:03:05;;;;;;;25.67;17.55;;;6.60;99.90;;;;;;5051239;28;20384;-87
2022/04/07 10:05:33;;;;;;;25.40;16.63;;;6.60;99.90;;;;;;5050678;28;20435;-88
2022/04/07 10:08:02;;;;;;;24.23;16.90;;;6.70;99.90;;;;;;5051135;28;20398;-88
2022/04/07 10:10:30;;;;;;;23.80;15.50;;;6.80;99.90;;;;;;5051213;28;20833;-89
2022/04/07 10:13:01;;;;;;;22.92;15.52;;;6.80;99.90;;;;;;5051001;28;20406;-88
2022/04/07 10:15:29;;;;;;;24.58;15.75;;;6.90;99.90;;;;;;5043233;28;20488;-88
2022/04/07 10:18:01;;;;;;;24.73;15.73;;;7.00;99.90;;;;;;5032234;28;20385;-88
2022/04/07 10:20:37;;;;;;;23.05;15.05;;;7.00;99.90;;;;;;5032188;28;20764;-87
2022/04/07 10:23:16;;;;;;;24.23;15.75;;;7.10;99.90;;;;;;5031169;28;20744;-88
2022/04/07 10:25:49;;;;;;;21.73;15.45;;;7.10;99.90;;;;;;5030979;28;20884;-88
2022/04/07 10:28:21;;;;;;;22.77;15.00;;;7.10;99.90;;;;;;5030124;28;20390;-87
2022/04/07 10:30:53;;;;;;;21.77;15.13;;;7.10;99.90;;;;;;5047473;28;20395;-88
2022/04/07 10:33:48;;;;;;;22.35;15.18;;;7.10;99.90;;;;;;5030861;28;20394;-88
2022/04/07 10:36:23;;;;;;;22.23;15.07;;;7.10;99.90;;;;;;5031720;28;20484;-89
2022/04/07 10:38:52;;;;;;;24.00;15.90;;;7.10;99.90;;;;;;5014546;28;20389;-88
2022/04/07 10:41:39;;;;;;;22.63;14.87;;;7.10;99.90;;;;;;5030783;28;20390;-89
2022/04/07 10:44:13;;;;;;;21.55;15.30;;;7.10;99.90;;;;;;5030884;28;20396;-88
2022/04/07 10:46:42;;;;;;;24.42;15.80;;;7.10;99.90;;;;;;5037291;28;20402;-89
2022/04/07 10:49:11;;;;;;;25.15;15.95;;;7.10;99.90;;;;;;5050786;28;20392;-90
2022/04/07 10:51:53;;;;;;;22.73;15.48;;;7.10;99.90;;;;;;5067087;28;20793;-90
2022/04/07 10:54:21;;;;;;;24.50;16.00;;;7.10;99.90;;;;;;5050584;28;20403;-88
2022/04/07 10:56:55;;;;;;;24.45;15.70;;;7.10;99.90;;;;;;5034314;28;20404;-86
2022/04/07 10:59:27;;;;;;;24.33;15.90;;;7.10;99.90;;;;;;5034095;28;20403;-88
2022/04/07 11:02:03;;;;;;;22.02;14.80;;;7.10;99.90;;;;;;5067028;28;20476;-84
2022/04/07 11:04:39;;;;;;;24.38;16.20;;;7.10;99.90;;;;;;5049662;28;20427;-86
2022/04/07 11:07:19;;;;;;;22.65;15.05;;;7.20;99.90;;;;;;5049542;28;20388;-86
2022/04/07 11:09:54;;;;;;;22.30;15.50;;;7.20;99.90;;;;;;5066547;28;20853;-86
2022/04/07 11:12:25;;;;;;;21.53;14.87;;;7.20;99.90;;;;;;5050723;28;20411;-87
2022/04/07 11:15:02;;;;;;;19.60;13.32;;;7.30;99.90;;;;;;5050059;28;20409;-85
2022/04/07 11:17:33;;;;;;;21.33;14.38;;;7.40;99.90;;;;;;5042970;28;20409;-85
2022/04/07 11:20:21;;;;;;;20.45;14.48;;;7.40;99.90;;;;;;5053151;28;20442;-88
2022/04/07 11:22:55;;;;;;;19.33;13.83;;;7.50;99.90;;;;;;5039483;28;20397;-88
2022/04/07 11:25:24;;;;;;;20.73;13.77;;;7.60;99.90;;;;;;5050235;28;20765;-84
2022/04/07 11:28:15;;;;;;;18.65;12.85;;;7.70;99.90;;;;;;5045943;28;20408;-86
2022/04/07 11:31:03;;;;;;;19.73;13.98;;;7.80;99.90;;;;;;5039664;28;20901;-87
2022/04/07 11:33:39;;;;;;;18.33;12.77;;;7.90;99.90;;;;;;5030546;28;20394;-88
2022/04/07 11:36:10;;;;;;;18.70;13.30;;;7.90;99.90;;;;;;5031747;28;20402;-87
2022/04/07 11:38:43;;;;;;;18.20;12.75;;;8.00;99.90;;;;;;5022387;28;20497;-88
2022/04/07 11:41:16;;;;;;;17.25;12.52;;;8.00;99.90;;;;;;5017833;28;20389;-88
2022/04/07 11:43:52;;;;;;;18.80;12.27;;;8.00;99.90;;;;;;5035249;28;20411;-88
2022/04/07 11:46:32;;;;;;;19.30;12.95;;;8.00;99.90;;;;;;5034042;28;20880;-88
2022/04/07 11:49:01;;;;;;;18.57;12.93;;;8.00;99.90;;;;;;5035130;28;20468;-89
2022/04/07 11:51:32;;;;;;;17.25;11.90;;;8.10;99.90;;;;;;5018574;28;20480;-89
2022/04/07 11:54:00;;;;;;;16.83;11.65;;;8.10;99.90;;;;;;5018439;28;20402;-87
2022/04/07 11:56:31;;;;;;;15.60;11.52;;;8.10;99.90;;;;;;5044510;28;20929;-88
2022/04/07 11:59:10;;;;;;;15.77;10.77;;;8.20;99.90;;;;;;5052865;28;20399;-88
2022/04/07 12:01:40;;;;;;;16.25;10.82;;;8.20;99.90;;;;;;5052659;28;20407;-88
2022/04/07 12:04:10;;;;;;;16.10;10.77;;;8.20;99.90;;;;;;5032665;28;20440;-88
2022/04/07 12:06:47;;;;;;;14.17;9.67;;;8.20;99.90;;;;;;5049653;28;20385;-88
2022/04/07 12:09:16;;;;;;;15.68;10.73;;;8.20;99.90;;;;;;5033595;28;20390;-89
2022/04/07 12:11:45;;;;;;;15.20;10.32;;;8.10;99.90;;;;;;5017113;28;20419;-89
2022/04/07 12:14:15;;;;;;;15.65;10.00;;;8.10;99.90;;;;;;5033549;28;20485;-89
2022/04/07 12:16:48;;;;;;;14.80;10.00;;;8.10;99.90;;;;;;5017334;28;20752;-89
2022/04/07 12:19:19;;;;;;;13.68;9.95;;;8.10;99.90;;;;;;5017331;28;20433;-88
2022/04/07 12:21:57;;;;;;;13.82;9.52;;;8.20;99.90;;;;;;5034382;28;20422;-88
2022/04/07 12:24:27;;;;;;;14.32;9.85;;;8.20;99.90;;;;;;5033353;28;20400;-88
2022/04/07 12:26:59;;;;;;;14.50;9.40;;;8.20;99.90;;;;;;5022793;28;20488;-88
2022/04/07 12:29:31;;;;;;;14.40;8.97;;;8.30;99.90;;;;;;5052583;28;20944;-87
2022/04/07 12:32:06;;;;;;;12.63;8.45;;;8.20;99.90;;;;;;5031825;28;20785;-87
2022/04/07 12:34:54;;;;;;;13.57;9.43;;;8.20;99.90;;;;;;5049553;28;20399;-88
2022/04/07 12:37:43;;;;;;;15.52;9.90;;;8.30;99.90;;;;;;5049806;28;20407;-88
2022/04/07 12:40:11;;;;;;;15.18;10.10;;;8.30;99.90;;;;;;5054207;28;20434;-88
2022/04/07 12:42:52;;;;;;;11.75;8.77;;;8.40;99.90;;;;;;5050369;28;20439;-89
2022/04/07 12:45:21;;;;;;;12.33;8.23;;;8.40;99.90;;;;;;5051552;28;20411;-86
2022/04/07 12:48:18;;;;;;;13.40;8.63;;;8.40;99.90;;;;;;5052493;28;20469;-87
2022/04/07 12:50:55;;;;;;;11.80;8.75;;;8.40;99.90;;;;;;5031855;28;20419;-88
2022/04/07 12:53:34;;;;;;;11.23;8.13;;;8.50;99.90;;;;;;5032724;28;20481;-89
2022/04/07 12:56:27;;;;;;;11.82;8.20;;;8.50;99.90;;;;;;5032579;28;20414;-89
2022/04/07 12:59:08;;;;;;;11.63;7.68;;;8.50;99.90;;;;;;5049777;28;20437;-88